< Typhoon 199114 1991 Season Typhoon 199116 >
Typhoon 199115 (IVY)
General InformationTrack Information on Google MapsDetailed Wind InformationList of All Images || NewsDisaster Info.ResourceGoogle EarthGE AnimationAtom FeedGeoJSON
Detalied Best Track (Time Zone = UTC)
Year Month Day Hour Lat. Long. Pressure (hPa) Wind (kt) Class Image Chart
1991 9 2 06 7.5 155.5 1002 0 2 Image Chart
1991 9 2 12 7.9 154.6 1002 0 2 Image Chart
1991 9 2 18 8.7 154.4 1000 35 3 Image Chart
1991 9 3 00 9.5 154.0 1000 35 3 Image Chart
1991 9 3 06 10.3 153.5 996 35 3 Image Chart
1991 9 3 12 10.6 152.6 994 40 3 Image Chart
1991 9 3 18 11.0 151.8 994 40 3 Image Chart
1991 9 4 00 11.0 151.0 992 40 3 Image Chart
1991 9 4 06 12.3 150.1 992 40 3 Image Chart
1991 9 4 12 13.2 149.1 990 45 3 Image Chart
1991 9 4 18 13.9 148.5 990 45 3 Image Chart
1991 9 4 21 14.2 148.3 985 50 4 Image Chart
1991 9 5 00 14.8 148.2 985 50 4 Image Chart
1991 9 5 06 16.0 147.8 980 55 4 Image Chart
1991 9 5 12 17.5 147.0 980 60 4 Image Chart
1991 9 5 18 19.3 145.9 975 65 5 Image Chart
1991 9 6 00 20.7 145.4 965 70 5 Image Chart
1991 9 6 06 22.3 144.0 960 75 5 Image Chart
1991 9 6 12 23.4 142.4 955 80 5 Image Chart
1991 9 6 15 23.9 141.8 950 85 5 Image Chart
1991 9 6 18 24.4 141.1 945 85 5 Image Chart
1991 9 6 21 24.9 140.6 940 90 5 Image Chart
1991 9 7 00 25.5 140.0 940 90 5 Image Chart
1991 9 7 03 25.8 139.4 935 95 5 Image Chart
1991 9 7 06 26.2 139.1 935 95 5 Image Chart
1991 9 7 09 26.8 138.7 935 95 5 Image Chart
1991 9 7 12 27.3 138.2 935 95 5 Image Chart
1991 9 7 15 27.8 137.8 935 95 5 Image Chart
1991 9 7 18 28.1 137.7 935 95 5 Image Chart
1991 9 7 21 28.7 137.6 935 95 5 Image Chart
1991 9 8 00 29.2 137.4 935 95 5 Image Chart
1991 9 8 03 29.7 137.5 935 95 5 Image Chart
1991 9 8 06 30.3 137.5 940 90 5 Image Chart
1991 9 8 09 30.7 137.8 945 85 5 Image Chart
1991 9 8 12 31.1 138.2 950 80 5 Image Chart
1991 9 8 15 31.6 138.7 955 75 5 Image Chart
1991 9 8 18 32.2 139.1 955 75 5 Image Chart
1991 9 8 21 32.5 139.8 955 75 5 Image Chart
1991 9 9 00 32.8 140.6 955 75 5 Image Chart
1991 9 9 03 33.3 141.4 955 75 5 Image Chart
1991 9 9 06 33.9 142.4 960 75 5 Image Chart
1991 9 9 09 34.2 143.8 960 75 5 Image Chart
1991 9 9 12 34.6 145.2 960 75 5 Image Chart
1991 9 9 18 35.8 148.3 960 75 5 Image Chart
1991 9 10 00 37.3 152.0 970 65 5 Image Chart
1991 9 10 06 38.8 155.5 970 65 5 Image Chart
1991 9 10 12 39.6 159.1 975 60 4 Image Chart
1991 9 10 18 40.0 162.0 980 0 6 Image Chart
1991 9 11 00 41.0 166.0 980 0 6 Image Chart
1991 9 11 06 43.0 169.0 976 0 6 Image Chart
1991 9 11 12 44.0 173.0 976 0 6 Image Chart
1991 9 11 18 45.0 177.0 972 0 6 Image Chart
1991 9 12 00 46.0 179.0 972 0 6 Image Chart
1991 9 12 06 47.0 182.0 972 0 6 Image Chart
Japan Meteorological Agency Best Track Data | Correction Date : 1992-01-04
< Typhoon 199114 1991 Season Typhoon 199116 >

Help